sensor_id;sensor_type;location;lat;lon;timestamp;pressure;altitude;pressure_sealevel;temperature;humidity
50394;BME280;36308;46.312;25.288;2022-10-15T00:00:35;96569.44;;;7.39;71.50
50394;BME280;36308;46.312;25.288;2022-10-15T00:03:00;96560.63;;;7.39;71.00
50394;BME280;36308;46.312;25.288;2022-10-15T00:05:25;96550.34;;;7.36;71.33
50394;BME280;36308;46.312;25.288;2022-10-15T00:07:52;96556.28;;;7.38;71.08
50394;BME280;36308;46.312;25.288;2022-10-15T00:10:17;96558.53;;;7.41;71.77
50394;BME280;36308;46.312;25.288;2022-10-15T00:12:43;96553.78;;;7.43;71.50
50394;BME280;36308;46.312;25.288;2022-10-15T00:15:09;96557.47;;;7.42;71.66
50394;BME280;36308;46.312;25.288;2022-10-15T00:17:35;96551.91;;;7.43;71.45
50394;BME280;36308;46.312;25.288;2022-10-15T00:20:03;96549.22;;;7.43;71.82
50394;BME280;36308;46.312;25.288;2022-10-15T00:22:28;96546.78;;;7.42;71.79
50394;BME280;36308;46.312;25.288;2022-10-15T00:24:54;96559.25;;;7.48;72.12
50394;BME280;36308;46.312;25.288;2022-10-15T00:27:19;96553.09;;;7.47;71.92
50394;BME280;36308;46.312;25.288;2022-10-15T00:29:44;96553.22;;;7.53;72.17
50394;BME280;36308;46.312;25.288;2022-10-15T00:32:10;96548.69;;;7.53;72.36
50394;BME280;36308;46.312;25.288;2022-10-15T00:34:35;96547.06;;;7.52;72.37
50394;BME280;36308;46.312;25.288;2022-10-15T00:37:01;96537.53;;;7.56;72.21
50394;BME280;36308;46.312;25.288;2022-10-15T00:39:26;96540.81;;;7.58;72.26
50394;BME280;36308;46.312;25.288;2022-10-15T00:41:51;96532.19;;;7.56;72.38
50394;BME280;36308;46.312;25.288;2022-10-15T00:46:47;96540.13;;;7.63;71.99
50394;BME280;36308;46.312;25.288;2022-10-15T00:49:19;96535.81;;;7.62;71.91
50394;BME280;36308;46.312;25.288;2022-10-15T00:52:02;96536.63;;;7.62;72.16
50394;BME280;36308;46.312;25.288;2022-10-15T00:54:33;96528.81;;;7.61;71.99
50394;BME280;36308;46.312;25.288;2022-10-15T00:57:01;96530.22;;;7.63;72.17
50394;BME280;36308;46.312;25.288;2022-10-15T00:59:29;96520.59;;;7.62;71.75
50394;BME280;36308;46.312;25.288;2022-10-15T01:01:58;96523.25;;;7.62;71.77
50394;BME280;36308;46.312;25.288;2022-10-15T01:04:25;96513.59;;;7.61;71.91
50394;BME280;36308;46.312;25.288;2022-10-15T01:06:51;96515.06;;;7.57;71.59
50394;BME280;36308;46.312;25.288;2022-10-15T01:09:17;96525.56;;;7.59;71.99
50394;BME280;36308;46.312;25.288;2022-10-15T01:11:49;96521.03;;;7.59;71.59
50394;BME280;36308;46.312;25.288;2022-10-15T01:16:54;96521.50;;;7.56;71.78
50394;BME280;36308;46.312;25.288;2022-10-15T01:22:33;96523.19;;;7.51;71.57
50394;BME280;36308;46.312;25.288;2022-10-15T01:27:58;96512.13;;;7.47;71.35
50394;BME280;36308;46.312;25.288;2022-10-15T01:30:37;96512.59;;;7.44;71.35
50394;BME280;36308;46.312;25.288;2022-10-15T01:43:38;96520.19;;;7.28;71.13
50394;BME280;36308;46.312;25.288;2022-10-15T01:46:14;96516.09;;;7.26;70.89
50394;BME280;36308;46.312;25.288;2022-10-15T01:48:40;96520.25;;;7.22;70.84
50394;BME280;36308;46.312;25.288;2022-10-15T01:51:09;96514.78;;;7.17;71.24
50394;BME280;36308;46.312;25.288;2022-10-15T01:53:37;96516.66;;;7.16;70.88
50394;BME280;36308;46.312;25.288;2022-10-15T01:56:09;96510.09;;;7.12;70.84
50394;BME280;36308;46.312;25.288;2022-10-15T01:58:39;96512.63;;;7.07;70.94
50394;BME280;36308;46.312;25.288;2022-10-15T02:01:06;96506.69;;;7.05;70.83
50394;BME280;36308;46.312;25.288;2022-10-15T02:03:43;96500.44;;;6.93;70.99
50394;BME280;36308;46.312;25.288;2022-10-15T02:06:13;96510.72;;;6.96;71.07
50394;BME280;36308;46.312;25.288;2022-10-15T02:09:03;96515.47;;;6.94;71.21
50394;BME280;36308;46.312;25.288;2022-10-15T02:11:40;96512.63;;;6.88;71.09
50394;BME280;36308;46.312;25.288;2022-10-15T02:14:14;96517.38;;;6.86;71.27
50394;BME280;36308;46.312;25.288;2022-10-15T02:16:50;96517.81;;;6.83;71.04
50394;BME280;36308;46.312;25.288;2022-10-15T02:19:31;96517.06;;;6.76;70.98
50394;BME280;36308;46.312;25.288;2022-10-15T02:24:40;96518.31;;;6.74;71.11
50394;BME280;36308;46.312;25.288;2022-10-15T02:27:08;96524.94;;;6.71;70.89
50394;BME280;36308;46.312;25.288;2022-10-15T02:29:37;96509.78;;;6.65;70.97
50394;BME280;36308;46.312;25.288;2022-10-15T02:32:06;96511.88;;;6.63;71.08
50394;BME280;36308;46.312;25.288;2022-10-15T02:34:32;96511.88;;;6.63;71.00
50394;BME280;36308;46.312;25.288;2022-10-15T02:37:01;96517.63;;;6.60;71.12
50394;BME280;36308;46.312;25.288;2022-10-15T02:39:27;96516.22;;;6.57;70.95
50394;BME280;36308;46.312;25.288;2022-10-15T02:41:53;96517.94;;;6.52;71.05
50394;BME280;36308;46.312;25.288;2022-10-15T02:44:20;96513.63;;;6.51;70.92
50394;BME280;36308;46.312;25.288;2022-10-15T02:46:45;96523.13;;;6.46;71.57
50394;BME280;36308;46.312;25.288;2022-10-15T02:49:11;96518.22;;;6.43;70.98
50394;BME280;36308;46.312;25.288;2022-10-15T02:51:37;96515.16;;;6.40;71.21
50394;BME280;36308;46.312;25.288;2022-10-15T02:54:03;96515.38;;;6.38;71.00
50394;BME280;36308;46.312;25.288;2022-10-15T02:56:30;96515.81;;;6.35;71.02
50394;BME280;36308;46.312;25.288;2022-10-15T02:58:56;96521.59;;;6.32;71.15
50394;BME280;36308;46.312;25.288;2022-10-15T03:01:21;96523.88;;;6.28;71.11
50394;BME280;36308;46.312;25.288;2022-10-15T03:03:47;96523.28;;;6.26;71.14
50394;BME280;36308;46.312;25.288;2022-10-15T03:06:13;96519.19;;;6.24;71.25
50394;BME280;36308;46.312;25.288;2022-10-15T03:08:38;96500.03;;;6.09;71.28
50394;BME280;36308;46.312;25.288;2022-10-15T03:11:04;96518.19;;;6.18;71.27
50394;BME280;36308;46.312;25.288;2022-10-15T03:13:29;96518.84;;;6.14;71.23
50394;BME280;36308;46.312;25.288;2022-10-15T03:15:55;96517.44;;;6.11;71.06
50394;BME280;36308;46.312;25.288;2022-10-15T03:18:21;96517.66;;;6.10;71.33
50394;BME280;36308;46.312;25.288;2022-10-15T03:20:56;96525.91;;;6.08;71.57
50394;BME280;36308;46.312;25.288;2022-10-15T03:23:22;96523.44;;;6.06;71.44
50394;BME280;36308;46.312;25.288;2022-10-15T03:25:47;96522.25;;;6.02;71.33
50394;BME280;36308;46.312;25.288;2022-10-15T03:28:13;96518.97;;;6.00;71.16
50394;BME280;36308;46.312;25.288;2022-10-15T03:30:38;96519.63;;;5.96;71.25
50394;BME280;36308;46.312;25.288;2022-10-15T03:33:04;96526.78;;;5.95;71.19
50394;BME280;36308;46.312;25.288;2022-10-15T03:35:29;96514.88;;;5.91;71.46
50394;BME280;36308;46.312;25.288;2022-10-15T03:37:54;96520.47;;;5.90;71.44
50394;BME280;36308;46.312;25.288;2022-10-15T03:40:20;96522.72;;;5.86;71.27
50394;BME280;36308;46.312;25.288;2022-10-15T03:42:51;96523.16;;;5.83;71.44
50394;BME280;36308;46.312;25.288;2022-10-15T03:45:18;96519.06;;;5.80;71.35
50394;BME280;36308;46.312;25.288;2022-10-15T03:47:43;96521.94;;;5.79;71.33
50394;BME280;36308;46.312;25.288;2022-10-15T03:50:09;96527.72;;;5.76;71.61
50394;BME280;36308;46.312;25.288;2022-10-15T03:52:38;96523.03;;;5.71;71.51
50394;BME280;36308;46.312;25.288;2022-10-15T03:55:05;96528.56;;;5.70;71.83
50394;BME280;36308;46.312;25.288;2022-10-15T03:57:30;96532.50;;;5.67;71.59
50394;BME280;36308;46.312;25.288;2022-10-15T03:59:56;96543.16;;;5.67;71.43
50394;BME280;36308;46.312;25.288;2022-10-15T04:02:22;96534.78;;;5.63;71.51
50394;BME280;36308;46.312;25.288;2022-10-15T04:04:51;96536.22;;;5.59;71.54
50394;BME280;36308;46.312;25.288;2022-10-15T04:07:18;96539.09;;;5.58;71.45
50394;BME280;36308;46.312;25.288;2022-10-15T04:09:43;96524.19;;;5.50;71.25
50394;BME280;36308;46.312;25.288;2022-10-15T04:12:09;96533.00;;;5.51;71.52
50394;BME280;36308;46.312;25.288;2022-10-15T04:14:34;96524.19;;;5.50;71.51
50394;BME280;36308;46.312;25.288;2022-10-15T04:17:00;96528.31;;;5.46;71.71
50394;BME280;36308;46.312;25.288;2022-10-15T04:19:25;96538.13;;;5.45;71.47
50394;BME280;36308;46.312;25.288;2022-10-15T04:21:51;96532.44;;;5.42;71.35
50394;BME280;36308;46.312;25.288;2022-10-15T04:24:16;96536.13;;;5.41;71.48
50394;BME280;36308;46.312;25.288;2022-10-15T04:26:42;96532.22;;;5.37;71.16
50394;BME280;36308;46.312;25.288;2022-10-15T04:29:07;96531.63;;;5.35;71.72
50394;BME280;36308;46.312;25.288;2022-10-15T04:31:33;96530.00;;;5.34;71.61
50394;BME280;36308;46.312;25.288;2022-10-15T04:33:58;96540.06;;;5.32;71.46
50394;BME280;36308;46.312;25.288;2022-10-15T04:36:24;96537.00;;;5.28;71.45
50394;BME280;36308;46.312;25.288;2022-10-15T04:38:49;96540.91;;;5.25;71.38
50394;BME280;36308;46.312;25.288;2022-10-15T04:41:15;96540.31;;;5.23;71.21
50394;BME280;36308;46.312;25.288;2022-10-15T04:43:40;96542.34;;;5.21;71.21
50394;BME280;36308;46.312;25.288;2022-10-15T04:46:07;96540.72;;;5.20;71.60
50394;BME280;36308;46.312;25.288;2022-10-15T04:48:35;96546.47;;;5.17;71.61
50394;BME280;36308;46.312;25.288;2022-10-15T04:53:32;96546.88;;;5.14;71.94
50394;BME280;36308;46.312;25.288;2022-10-15T04:56:07;96540.94;;;5.12;72.13
50394;BME280;36308;46.312;25.288;2022-10-15T04:58:34;96548.94;;;5.12;71.84
50394;BME280;36308;46.312;25.288;2022-10-15T05:01:05;96551.00;;;5.10;72.10
50394;BME280;36308;46.312;25.288;2022-10-15T05:03:32;96549.38;;;5.09;72.00
50394;BME280;36308;46.312;25.288;2022-10-15T05:06:05;96552.03;;;5.09;72.01
50394;BME280;36308;46.312;25.288;2022-10-15T05:08:32;96550.19;;;5.10;71.88
50394;BME280;36308;46.312;25.288;2022-10-15T05:11:06;96554.69;;;5.09;72.06
50394;BME280;36308;46.312;25.288;2022-10-15T05:13:33;96549.38;;;5.09;72.21
50394;BME280;36308;46.312;25.288;2022-10-15T05:16:13;96553.06;;;5.08;72.40
50394;BME280;36308;46.312;25.288;2022-10-15T05:18:39;96561.66;;;5.10;72.35
50394;BME280;36308;46.312;25.288;2022-10-15T05:21:05;96571.31;;;5.11;72.55
50394;BME280;36308;46.312;25.288;2022-10-15T05:23:31;96564.13;;;5.12;72.79
50394;BME280;36308;46.312;25.288;2022-10-15T05:26:00;96564.94;;;5.12;72.42
50394;BME280;36308;46.312;25.288;2022-10-15T05:28:26;96552.66;;;5.11;72.76
50394;BME280;36308;46.312;25.288;2022-10-15T05:30:52;96561.84;;;5.15;72.88
50394;BME280;36308;46.312;25.288;2022-10-15T05:33:17;96567.59;;;5.19;73.31
50394;BME280;36308;46.312;25.288;2022-10-15T05:35:42;96567.59;;;5.19;73.39
50394;BME280;36308;46.312;25.288;2022-10-15T05:38:08;96569.22;;;5.20;73.53
50394;BME280;36308;46.312;25.288;2022-10-15T05:40:33;96565.31;;;5.22;73.25
50394;BME280;36308;46.312;25.288;2022-10-15T05:42:58;96576.19;;;5.28;73.57
50394;BME280;36308;46.312;25.288;2022-10-15T05:45:24;96564.47;;;5.29;74.12
50394;BME280;36308;46.312;25.288;2022-10-15T05:47:53;96568.34;;;5.33;73.82
50394;BME280;36308;46.312;25.288;2022-10-15T05:50:19;96575.72;;;5.37;73.97
50394;BME280;36308;46.312;25.288;2022-10-15T05:52:45;96574.25;;;5.41;74.37
50394;BME280;36308;46.312;25.288;2022-10-15T05:55:10;96581.03;;;5.44;74.33
50394;BME280;36308;46.312;25.288;2022-10-15T05:57:35;96580.19;;;5.50;74.43
50394;BME280;36308;46.312;25.288;2022-10-15T06:00:05;96582.41;;;5.53;74.09
50394;BME280;36308;46.312;25.288;2022-10-15T06:02:30;96575.03;;;5.55;74.64
50394;BME280;36308;46.312;25.288;2022-10-15T06:04:56;96582.19;;;5.61;75.02
50394;BME280;36308;46.312;25.288;2022-10-15T06:07:21;96582.38;;;5.66;75.01
50394;BME280;36308;46.312;25.288;2022-10-15T06:09:47;96590.53;;;5.72;75.03
50394;BME280;36308;46.312;25.288;2022-10-15T06:12:12;96586.41;;;5.76;75.17
50394;BME280;36308;46.312;25.288;2022-10-15T06:14:38;96596.25;;;5.82;74.95
50394;BME280;36308;46.312;25.288;2022-10-15T06:17:03;96579.38;;;5.88;75.13
50394;BME280;36308;46.312;25.288;2022-10-15T06:19:28;96589.19;;;5.94;75.21
50394;BME280;36308;46.312;25.288;2022-10-15T06:21:54;96595.78;;;5.98;75.30
50394;BME280;36308;46.312;25.288;2022-10-15T06:24:19;96597.38;;;6.06;75.46
50394;BME280;36308;46.312;25.288;2022-10-15T06:26:45;96581.56;;;6.04;75.10
50394;BME280;36308;46.312;25.288;2022-10-15T06:29:10;96589.47;;;6.18;75.37
50394;BME280;36308;46.312;25.288;2022-10-15T06:31:35;96587.00;;;6.23;75.38
50394;BME280;36308;46.312;25.288;2022-10-15T06:34:01;96593.09;;;6.30;75.48
50394;BME280;36308;46.312;25.288;2022-10-15T06:36:26;96597.56;;;6.36;75.33
50394;BME280;36308;46.312;25.288;2022-10-15T06:38:52;96602.03;;;6.42;75.64
50394;BME280;36308;46.312;25.288;2022-10-15T06:41:17;96610.59;;;6.51;75.54
50394;BME280;36308;46.312;25.288;2022-10-15T06:43:42;96609.53;;;6.59;75.47
50394;BME280;36308;46.312;25.288;2022-10-15T06:46:10;96600.63;;;6.65;75.49
50394;BME280;36308;46.312;25.288;2022-10-15T06:48:36;96602.22;;;6.73;75.21
50394;BME280;36308;46.312;25.288;2022-10-15T06:51:02;96607.50;;;6.79;75.45
50394;BME280;36308;46.312;25.288;2022-10-15T06:53:28;96612.72;;;6.93;75.49
50394;BME280;36308;46.312;25.288;2022-10-15T06:55:58;96612.22;;;7.02;75.64
50394;BME280;36308;46.312;25.288;2022-10-15T06:58:24;96615.41;;;7.11;75.36
50394;BME280;36308;46.312;25.288;2022-10-15T07:00:49;96613.66;;;7.23;75.54
50394;BME280;36308;46.312;25.288;2022-10-15T07:03:15;96616.63;;;7.34;75.48
50394;BME280;36308;46.312;25.288;2022-10-15T07:05:40;96611.56;;;7.44;75.69
50394;BME280;36308;46.312;25.288;2022-10-15T07:08:06;96608.59;;;7.52;75.33
50394;BME280;36308;46.312;25.288;2022-10-15T07:10:31;96605.63;;;7.60;75.20
50394;BME280;36308;46.312;25.288;2022-10-15T07:13:00;96603.59;;;7.74;75.36
50394;BME280;36308;46.312;25.288;2022-10-15T07:15:27;96612.03;;;7.89;75.44
50394;BME280;36308;46.312;25.288;2022-10-15T07:17:54;96609.44;;;8.01;75.63
50394;BME280;36308;46.312;25.288;2022-10-15T07:20:27;96600.59;;;8.13;75.24
50394;BME280;36308;46.312;25.288;2022-10-15T07:22:57;96601.25;;;8.26;75.53
50394;BME280;36308;46.312;25.288;2022-10-15T07:25:24;96605.13;;;8.42;75.26
50394;BME280;36308;46.312;25.288;2022-10-15T07:27:49;96603.88;;;8.57;74.65
50394;BME280;36308;46.312;25.288;2022-10-15T07:30:15;96604.28;;;8.72;75.42
50394;BME280;36308;46.312;25.288;2022-10-15T07:32:40;96595.88;;;8.80;74.81
50394;BME280;36308;46.312;25.288;2022-10-15T07:35:06;96605.09;;;8.96;74.85
50394;BME280;36308;46.312;25.288;2022-10-15T07:37:32;96606.84;;;9.14;74.14
50394;BME280;36308;46.312;25.288;2022-10-15T07:39:58;96598.06;;;9.30;74.20
50394;BME280;36308;46.312;25.288;2022-10-15T07:42:30;96603.75;;;9.46;73.85
50394;BME280;36308;46.312;25.288;2022-10-15T07:44:55;96598.72;;;9.61;73.34
50394;BME280;36308;46.312;25.288;2022-10-15T07:47:20;96604.38;;;9.77;73.63
50394;BME280;36308;46.312;25.288;2022-10-15T07:49:46;96603.63;;;9.93;73.38
50394;BME280;36308;46.312;25.288;2022-10-15T07:52:11;96604.75;;;10.09;73.02
50394;BME280;36308;46.312;25.288;2022-10-15T07:54:37;96595.91;;;10.25;72.64
50394;BME280;36308;46.312;25.288;2022-10-15T07:57:03;96593.75;;;10.39;72.22
50394;BME280;36308;46.312;25.288;2022-10-15T07:59:31;96601.59;;;10.58;71.90
50394;BME280;36308;46.312;25.288;2022-10-15T08:01:58;96601.34;;;10.76;70.93
50394;BME280;36308;46.312;25.288;2022-10-15T08:04:24;96594.59;;;10.90;70.35
50394;BME280;36308;46.312;25.288;2022-10-15T08:06:49;96594.50;;;11.02;70.18
50394;BME280;36308;46.312;25.288;2022-10-15T08:09:15;96599.06;;;11.19;69.47
50394;BME280;36308;46.312;25.288;2022-10-15T08:11:41;96601.13;;;11.33;69.79
50394;BME280;36308;46.312;25.288;2022-10-15T08:14:06;96597.84;;;11.48;69.76
50394;BME280;36308;46.312;25.288;2022-10-15T08:16:31;96603.97;;;11.66;68.80
50394;BME280;36308;46.312;25.288;2022-10-15T08:18:57;96604.75;;;11.83;68.60
50394;BME280;36308;46.312;25.288;2022-10-15T08:21:23;96604.69;;;12.00;66.96
50394;BME280;36308;46.312;25.288;2022-10-15T08:23:49;96597.28;;;12.12;66.19
50394;BME280;36308;46.312;25.288;2022-10-15T08:26:14;96602.81;;;12.28;65.83
50394;BME280;36308;46.312;25.288;2022-10-15T08:28:39;96605.69;;;12.43;65.68
50394;BME280;36308;46.312;25.288;2022-10-15T08:31:05;96591.75;;;12.57;65.00
50394;BME280;36308;46.312;25.288;2022-10-15T08:33:31;96602.13;;;12.70;64.63
50394;BME280;36308;46.312;25.288;2022-10-15T08:35:57;96598.44;;;12.81;64.68
50394;BME280;36308;46.312;25.288;2022-10-15T08:38:22;96601.25;;;12.97;64.69
50394;BME280;36308;46.312;25.288;2022-10-15T08:40:49;96590.53;;;13.07;64.19
50394;BME280;36308;46.312;25.288;2022-10-15T08:43:39;96602.25;;;13.28;64.09
50394;BME280;36308;46.312;25.288;2022-10-15T08:46:12;96599.44;;;13.45;63.40
50394;BME280;36308;46.312;25.288;2022-10-15T08:48:46;96606.53;;;13.61;63.16
50394;BME280;36308;46.312;25.288;2022-10-15T08:51:19;96607.69;;;13.75;63.14
50394;BME280;36308;46.312;25.288;2022-10-15T08:53:52;96598.00;;;13.90;62.86
50394;BME280;36308;46.312;25.288;2022-10-15T08:56:36;96597.53;;;14.03;62.71
50394;BME280;36308;46.312;25.288;2022-10-15T09:02:15;96605.44;;;14.35;62.34
50394;BME280;36308;46.312;25.288;2022-10-15T09:04:54;96600.31;;;14.54;61.79
50394;BME280;36308;46.312;25.288;2022-10-15T09:07:43;96599.56;;;14.74;61.96
50394;BME280;36308;46.312;25.288;2022-10-15T09:15:25;96599.81;;;15.29;59.42
50394;BME280;36308;46.312;25.288;2022-10-15T09:17:55;96604.66;;;15.43;59.40
50394;BME280;36308;46.312;25.288;2022-10-15T09:20:32;96607.06;;;15.54;58.94
50394;BME280;36308;46.312;25.288;2022-10-15T09:22:58;96599.16;;;15.68;58.39
50394;BME280;36308;46.312;25.288;2022-10-15T09:25:31;96596.44;;;15.84;58.29
50394;BME280;36308;46.312;25.288;2022-10-15T09:28:00;96601.50;;;16.01;57.99
50394;BME280;36308;46.312;25.288;2022-10-15T09:30:41;96598.16;;;16.19;57.42
50394;BME280;36308;46.312;25.288;2022-10-15T09:33:34;96592.91;;;16.33;56.17
50394;BME280;36308;46.312;25.288;2022-10-15T09:44:09;96582.81;;;16.78;54.53
50394;BME280;36308;46.312;25.288;2022-10-15T09:46:48;96586.03;;;16.90;54.18
50394;BME280;36308;46.312;25.288;2022-10-15T09:49:20;96582.66;;;17.04;53.85
50394;BME280;36308;46.312;25.288;2022-10-15T09:54:32;96575.88;;;17.30;53.83
50394;BME280;36308;46.312;25.288;2022-10-15T09:57:01;96578.97;;;17.48;53.36
50394;BME280;36308;46.312;25.288;2022-10-15T09:59:26;96585.53;;;17.66;52.29
50394;BME280;36308;46.312;25.288;2022-10-15T10:02:00;96571.53;;;17.77;51.04
50394;BME280;36308;46.312;25.288;2022-10-15T10:04:32;96581.44;;;17.92;50.64
50394;BME280;36308;46.312;25.288;2022-10-15T10:07:00;96577.81;;;18.02;50.64
50394;BME280;36308;46.312;25.288;2022-10-15T10:09:48;96577.06;;;18.15;50.59
50394;BME280;36308;46.312;25.288;2022-10-15T10:12:26;96565.47;;;18.29;49.00
50394;BME280;36308;46.312;25.288;2022-10-15T10:14:53;96581.66;;;18.39;48.93
50394;BME280;36308;46.312;25.288;2022-10-15T10:17:21;96575.25;;;18.49;48.64
50394;BME280;36308;46.312;25.288;2022-10-15T10:22:48;96580.88;;;18.71;48.49
50394;BME280;36308;46.312;25.288;2022-10-15T10:25:30;96563.00;;;18.84;47.52
50394;BME280;36308;46.312;25.288;2022-10-15T10:28:21;96560.94;;;18.95;46.98
50394;BME280;36308;46.312;25.288;2022-10-15T10:30:52;96563.78;;;19.04;46.35
50394;BME280;36308;46.312;25.288;2022-10-15T10:33:41;96560.38;;;19.12;46.81
50394;BME280;36308;46.312;25.288;2022-10-15T10:36:23;96563.44;;;19.24;46.51
50394;BME280;36308;46.312;25.288;2022-10-15T10:39:03;96563.75;;;19.36;46.27
50394;BME280;36308;46.312;25.288;2022-10-15T10:41:50;96558.28;;;19.50;46.71
50394;BME280;36308;46.312;25.288;2022-10-15T10:44:33;96560.53;;;19.62;46.34
50394;BME280;36308;46.312;25.288;2022-10-15T10:47:09;96562.47;;;19.75;44.94
50394;BME280;36308;46.312;25.288;2022-10-15T10:49:55;96561.25;;;19.82;45.09
50394;BME280;36308;46.312;25.288;2022-10-15T10:52:34;96568.13;;;19.93;45.38
50394;BME280;36308;46.312;25.288;2022-10-15T10:55:18;96557.22;;;19.93;44.53
50394;BME280;36308;46.312;25.288;2022-10-15T10:57:52;96558.59;;;20.04;44.36
50394;BME280;36308;46.312;25.288;2022-10-15T11:02:43;96557.06;;;20.26;45.29
50394;BME280;36308;46.312;25.288;2022-10-15T11:05:10;96557.34;;;20.38;44.04
50394;BME280;36308;46.312;25.288;2022-10-15T11:10:35;96556.47;;;20.51;42.56
50394;BME280;36308;46.312;25.288;2022-10-15T11:19:05;96551.41;;;20.81;42.47
50394;BME280;36308;46.312;25.288;2022-10-15T11:24:07;96546.63;;;20.87;41.34
50394;BME280;36308;46.312;25.288;2022-10-15T11:38:11;96536.63;;;21.05;40.29
50394;BME280;36308;46.312;25.288;2022-10-15T11:41:12;96529.72;;;21.07;40.34
50394;BME280;36308;46.312;25.288;2022-10-15T11:49:09;96529.81;;;21.25;40.65
50394;BME280;36308;46.312;25.288;2022-10-15T11:54:47;96528.00;;;21.43;39.99
50394;BME280;36308;46.312;25.288;2022-10-15T11:57:24;96522.88;;;21.50;40.16
50394;BME280;36308;46.312;25.288;2022-10-15T11:59:55;96529.81;;;21.56;39.90
50394;BME280;36308;46.312;25.288;2022-10-15T12:02:37;96517.75;;;21.57;39.24
50394;BME280;36308;46.312;25.288;2022-10-15T12:05:09;96513.38;;;21.56;39.19
50394;BME280;36308;46.312;25.288;2022-10-15T12:07:41;96518.06;;;21.55;39.33
50394;BME280;36308;46.312;25.288;2022-10-15T12:15:52;96516.00;;;21.61;40.09
50394;BME280;36308;46.312;25.288;2022-10-15T12:18:56;96511.34;;;21.70;40.60
50394;BME280;36308;46.312;25.288;2022-10-15T12:21:29;96515.72;;;21.80;39.83
50394;BME280;36308;46.312;25.288;2022-10-15T12:23:55;96523.16;;;21.88;39.54
50394;BME280;36308;46.312;25.288;2022-10-15T12:28:55;96527.19;;;21.91;38.07
50394;BME280;36308;46.312;25.288;2022-10-15T12:31:21;96523.47;;;21.87;38.06
50394;BME280;36308;46.312;25.288;2022-10-15T12:36:20;96515.41;;;21.82;38.93
50394;BME280;36308;46.312;25.288;2022-10-15T12:39:00;96517.34;;;21.81;38.66
50394;BME280;36308;46.312;25.288;2022-10-15T12:41:39;96515.53;;;21.76;38.16
50394;BME280;36308;46.312;25.288;2022-10-15T12:44:30;96517.59;;;21.62;38.29
50394;BME280;36308;46.312;25.288;2022-10-15T12:46:57;96515.50;;;21.50;38.76
50394;BME280;36308;46.312;25.288;2022-10-15T12:51:56;96514.94;;;21.39;39.68
50394;BME280;36308;46.312;25.288;2022-10-15T12:54:40;96508.84;;;21.43;39.73
50394;BME280;36308;46.312;25.288;2022-10-15T12:59:59;96507.41;;;21.45;39.43
50394;BME280;36308;46.312;25.288;2022-10-15T13:02:45;96505.00;;;21.44;39.52
50394;BME280;36308;46.312;25.288;2022-10-15T13:05:31;96503.88;;;21.45;39.16
50394;BME280;36308;46.312;25.288;2022-10-15T13:08:03;96509.03;;;21.46;39.49
50394;BME280;36308;46.312;25.288;2022-10-15T13:10:38;96511.28;;;21.44;39.01
50394;BME280;36308;46.312;25.288;2022-10-15T13:13:10;96508.47;;;21.35;39.06
50394;BME280;36308;46.312;25.288;2022-10-15T13:15:38;96499.59;;;21.30;39.58
50394;BME280;36308;46.312;25.288;2022-10-15T13:18:10;96499.59;;;21.30;39.58
50394;BME280;36308;46.312;25.288;2022-10-15T13:20:39;96503.13;;;21.30;39.42
50394;BME280;36308;46.312;25.288;2022-10-15T13:25:33;96499.41;;;21.26;39.39
50394;BME280;36308;46.312;25.288;2022-10-15T13:27:58;96507.81;;;21.30;39.37
50394;BME280;36308;46.312;25.288;2022-10-15T13:30:23;96502.94;;;21.27;39.31
50394;BME280;36308;46.312;25.288;2022-10-15T13:32:51;96496.66;;;21.17;39.32
50394;BME280;36308;46.312;25.288;2022-10-15T13:35:20;96508.38;;;21.18;39.55
50394;BME280;36308;46.312;25.288;2022-10-15T13:37:47;96501.31;;;21.17;39.75
50394;BME280;36308;46.312;25.288;2022-10-15T13:40:22;96493.72;;;21.14;39.57
50394;BME280;36308;46.312;25.288;2022-10-15T13:42:59;96493.88;;;21.09;39.62
50394;BME280;36308;46.312;25.288;2022-10-15T13:45:25;96497.91;;;21.11;39.41
50394;BME280;36308;46.312;25.288;2022-10-15T13:47:52;96499.34;;;21.09;39.57
50394;BME280;36308;46.312;25.288;2022-10-15T13:55:37;96504.81;;;21.09;40.39
50394;BME280;36308;46.312;25.288;2022-10-15T14:00:42;96497.09;;;21.11;41.57
50394;BME280;36308;46.312;25.288;2022-10-15T14:05:48;96493.06;;;21.08;42.44
50394;BME280;36308;46.312;25.288;2022-10-15T14:08:31;96499.78;;;21.02;42.54
50394;BME280;36308;46.312;25.288;2022-10-15T14:10:58;96498.00;;;20.97;42.57
50394;BME280;36308;46.312;25.288;2022-10-15T14:13:24;96499.25;;;20.91;43.44
50394;BME280;36308;46.312;25.288;2022-10-15T14:18:49;96500.25;;;20.73;44.18
50394;BME280;36308;46.312;25.288;2022-10-15T14:21:18;96511.63;;;20.66;44.38
50394;BME280;36308;46.312;25.288;2022-10-15T14:23:45;96507.50;;;20.55;44.93
50394;BME280;36308;46.312;25.288;2022-10-15T14:26:12;96499.25;;;20.46;45.14
50394;BME280;36308;46.312;25.288;2022-10-15T14:28:40;96505.75;;;20.36;45.28
50394;BME280;36308;46.312;25.288;2022-10-15T14:31:06;96504.56;;;20.29;45.47
50394;BME280;36308;46.312;25.288;2022-10-15T14:33:39;96506.41;;;20.19;45.65
50394;BME280;36308;46.312;25.288;2022-10-15T14:38:36;96501.63;;;20.03;45.82
50394;BME280;36308;46.312;25.288;2022-10-15T14:44:18;96509.81;;;19.89;46.12
50394;BME280;36308;46.312;25.288;2022-10-15T14:46:49;96504.47;;;19.84;46.40
50394;BME280;36308;46.312;25.288;2022-10-15T14:49:25;96509.25;;;19.78;46.43
50394;BME280;36308;46.312;25.288;2022-10-15T14:51:54;96501.53;;;19.66;46.41
50394;BME280;36308;46.312;25.288;2022-10-15T14:54:23;96504.06;;;19.63;46.79
50394;BME280;36308;46.312;25.288;2022-10-15T14:56:53;96512.94;;;19.54;46.93
50394;BME280;36308;46.312;25.288;2022-10-15T14:59:23;96500.94;;;19.42;46.98
50394;BME280;36308;46.312;25.288;2022-10-15T15:01:54;96513.56;;;19.37;47.41
50394;BME280;36308;46.312;25.288;2022-10-15T15:04:39;96515.38;;;19.28;47.72
50394;BME280;36308;46.312;25.288;2022-10-15T15:07:12;96482.03;;;19.04;47.77